Terminal Aerodrome Forecast
Issued by NWS

Home | Current Version | Previous Version | Text Only | Print | Product List | Glossary On
Versions: 1 2 3 4 5 6 7 8 9 10 11 12 13 14 15 16
000
FTUS43 KMQT 191100
TAFIWD
TAF
KIWD 191136Z 1912/2012 15011KT P6SM BKN100 WS010/16035KT
     FM191500 16016G25KT P6SM -SHRA OVC060
     FM191700 18017G28KT P6SM BKN060
     FM192200 18014G21KT 6SM -SHRA OVC040
     FM200400 19010KT 5SM BR BKN035
      AMD LTD TO CLD VIS AND WIND=

USA.gov is the U.S. government's official web portal to all federal, state and local government web resources and services.